KSRQ 010459Z 0105/0124 VRB02KT 6SM BR FEW002 SCT010
From batch tds/tafs/production/2023/2/1/h05_m29_tafs.cache.xml
Issued (about 1 hour ago)
Forecasts KSRQ 010459Z 0105/0124 VRB02KT 6SM BR FEW002 SCT010
FM010600 VRB02KT 1SM BR SCT002 BKN010
TEMPO 0108/0112 1/2SM FG BKN002
FM011500 17005KT P6SM SCT050
FM011700 25008KT P6SM FEW250
TAF AMD YBTL 010458Z 0105/0200 34012KT 9999 FEW022
From batch tds/tafs/production/2023/2/1/h04_m59_tafs.cache.xml
Issued (about 1 hour ago)
Forecasts TAF AMD YBTL 010458Z 0105/0200 34012KT 9999 FEW022
FM010900 31008KT 9999 -SHRA SCT015
FM012000 27005KT 9999 NSW FEW017
TEMPO 0109/0114 2000 SHRA BKN010
TEMPO 0114/0120 9999 BKN008
PROB40
TEMPO 0106/0114 VRB25G35KT 1000 TSRA BKN012 SCT025CB
TAF AMD LTCK 010455Z 0104/0112 VRB02KT 3100 BR FEW008 SCT030 BKN070
From batch tds/tafs/production/2023/2/1/h04_m59_tafs.cache.xml
Issued (about 1 hour ago)
Forecasts TAF AMD LTCK 010455Z 0104/0112 VRB02KT 3100 BR FEW008 SCT030 BKN070
TEMPO 0104/0108 1100 -SN BR SCT010 BKN030
TEMPO 0108/0112 1100 -SN BR SCT010 BKN030
KPIE 010455Z 0105/0124 VRB02KT 6SM BR SCT005
From batch tds/tafs/production/2023/2/1/h04_m59_tafs.cache.xml
Issued (about 1 hour ago)
Forecasts KPIE 010455Z 0105/0124 VRB02KT 6SM BR SCT005
FM010600 VRB02KT 1/2SM FG BKN002
TEMPO 0106/0108 1SM BR BKN005
FM011500 20005KT P6SM BKN050 BKN250
FM011800 29007KT P6SM SCT250
TAF EDLV 010450Z 0105/0124 25014KT 9999 BKN025
From batch tds/tafs/production/2023/2/1/h04_m59_tafs.cache.xml
Issued (about 1 hour ago)
Forecasts TAF EDLV 010450Z 0105/0124 25014KT 9999 BKN025
BECMG 0108/0111 27015G25KT
TEMPO 0110/0112 27020G30KT
TEMPO 0112/0117 28020G35KT 4000 SHRA BKN014CB
PROB30
TEMPO 0117/0124 4000 SHRA BKN010CB
BECMG 0117/0121 27011KT
KMOB 010449Z 0105/0124 17006KT 1SM BR BKN002 BKN028 OVC040
From batch tds/tafs/production/2023/2/1/h04_m59_tafs.cache.xml
Issued (about 1 hour ago)
Forecasts KMOB 010449Z 0105/0124 17006KT 1SM BR BKN002 BKN028 OVC040
FM010700 27005KT 1/4SM FG OVC004
FM011400 36007KT 2SM BR OVC005
FM011800 36005KT P6SM BKN015
TAF AMD ESKN 010449Z 0104/0203 VRB02KT 9999 BKN010
From batch tds/tafs/production/2023/2/1/h04_m59_tafs.cache.xml
Issued (about 1 hour ago)
Forecasts TAF AMD ESKN 010449Z 0104/0203 VRB02KT 9999 BKN010
TEMPO 0104/0106 4000 -FZDZ BKN004
PROB40 0106/0114 1200 -SNRA BR BKN004
PROB40 0114/0124 BKN008
TEMPO 0200/0203 3000 -SN BKN008
TAF UMMG 010448Z 0105/0115 25005G10MPS 9999 BKN016
From batch tds/tafs/production/2023/2/1/h05_m29_tafs.cache.xml
Issued (about 1 hour ago)
Forecasts TAF UMMG 010448Z 0105/0115 25005G10MPS 9999 BKN016
TEMPO 0105/0109 26007G13MPS 6000 -SHSNRA BKN009CB
TEMPO 0109/0115 24006G11MPS -SHSNRA BKN011CB
KEWN 010448Z 0105/0124 VRB03KT 1/2SM FG OVC003
From batch tds/tafs/production/2023/2/1/h04_m59_tafs.cache.xml
Issued (about 1 hour ago)
Forecasts KEWN 010448Z 0105/0124 VRB03KT 1/2SM FG OVC003
FM011100 36004KT 4SM -RA BR OVC004
FM011800 02009KT 6SM BR OVC006
KBFM 010447Z 0105/0124 VRB03KT 1/2SM FG VV002
From batch tds/tafs/production/2023/2/1/h04_m59_tafs.cache.xml
Issued (about 1 hour ago)
Forecasts KBFM 010447Z 0105/0124 VRB03KT 1/2SM FG VV002
FM011500 36007KT 2SM BR OVC005
FM011800 03006KT P6SM BKN015
TAF AMD KSSC 010445Z 0104/0207 20009KT 9999 OVC003 QNH3010INS
From batch tds/tafs/production/2023/2/1/h04_m59_tafs.cache.xml
Issued (about 1 hour ago)
Forecasts TAF AMD KSSC 010445Z 0104/0207 20009KT 9999 OVC003 QNH3010INS
TEMPO 0105/0108 4800 BR OVC002
BECMG 0106/0107 24003KT 4800 BR BKN010 OVC015 QNH3009INS
BECMG 0113/0114 25005KT 3600 -RA BR BKN010 OVC025 QNH3013INS
BECMG 0115/0116 25005KT 9999 NSW BKN010 OVC025 QNH3013INS
BECMG 0118/0119 33005KT 9999 OVC015 QNH3015INS TX17/0120Z TN12/0114Z
TAF AMD KDOV 010444Z 0104/0206 02006KT 8000 -SHRA OVC008 620154 510404 QNH3020INS
From batch tds/tafs/production/2023/2/1/h04_m59_tafs.cache.xml
Issued (about 1 hour ago)
Forecasts TAF AMD KDOV 010444Z 0104/0206 02006KT 8000 -SHRA OVC008 620154 510404 QNH3020INS
TEMPO 0106/0108 6000 -RASN
BECMG 0107/0108 36009KT 3200 -SN OVC006 650105 QNH3019INS
TEMPO 0108/0112 OVC003
BECMG 0111/0112 34009KT 9999 NSW OVC010 620103 QNH3022INS
BECMG 0115/0116 33006KT 9999 SCT015 QNH3025INS
BECMG 0119/0120 32006KT 9999 SKC QNH3026INS TX02/0104Z TNM01/0111Z
TAF AMD YPTN 010443Z 0105/0200 33010KT 4000 TSRA SCT030 SCT030CB
From batch tds/tafs/production/2023/2/1/h04_m59_tafs.cache.xml
Issued (about 1 hour ago)
Forecasts TAF AMD YPTN 010443Z 0105/0200 33010KT 4000 TSRA SCT030 SCT030CB
FM010600 30010KT 9999 -SHRA SCT040
FM011800 30005KT 9999 NSW BKN010
TEMPO 0106/0111 3000 TSRA BKN015 SCT035CB
TAF AMD RJOI 0104/0203 30008KT 9999 FEW020 BKN030 BKN050 610406 512009 QNH2987INS
From batch tds/tafs/production/2023/2/1/h04_m59_tafs.cache.xml
Issued (about 1 hour ago)
Forecasts TAF AMD RJOI 0104/0203 30008KT 9999 FEW020 BKN030 BKN050 610406 512009 QNH2987INS
TEMPO 0103/0109 VRB06KT -SHRA FEW010 BKN025 BKN040
FM011500 36010KT 9999 FEW020 600000 512406 QNH3004INS
BECMG 0121/0123 36008KT 9999 FEW025 SCT040 542406 QNH3016INS T10/0105Z T05/0121Z AMD 0425
TAF AMD EGPB 010441Z 0104/0112 31042G55KT 9999 FEW015 SCT030
From batch tds/tafs/production/2023/2/1/h04_m59_tafs.cache.xml
Issued (about 1 hour ago)
Forecasts TAF AMD EGPB 010441Z 0104/0112 31042G55KT 9999 FEW015 SCT030
TEMPO 0104/0112 5000 SHRA
PROB40
TEMPO 0104/0112 3000 +SHRA SHGS BKN012CB
BECMG 0106/0109 33030G42KT
BECMG 0109/0112 34022G32KT
TAF AMD OEDM 010440Z 0105/0206 26010KT 7000 FEW040
From batch tds/tafs/production/2023/2/1/h04_m59_tafs.cache.xml
Issued (about 1 hour ago)
Forecasts TAF AMD OEDM 010440Z 0105/0206 26010KT 7000 FEW040
TEMPO 0105/0108 2000 BR
PROB30
TEMPO 0105/0107 0100 FG
BECMG 0109/0110 25014KT
TEMPO 0107/0115 3000 BLDU
BECMG 0118/0120 VRB03KT
TAF AMD KADW 010440Z 0104/0207 05006KT 9999 OVC014 620202 QNH3018INS
From batch tds/tafs/production/2023/2/1/h04_m59_tafs.cache.xml
Issued (about 1 hour ago)
Forecasts TAF AMD KADW 010440Z 0104/0207 05006KT 9999 OVC014 620202 QNH3018INS
BECMG 0107/0108 35008KT 4800 -SN BR BKN006 OVC010 650069 QNH3019INS
BECMG 0111/0112 34012KT 9999 NSW SCT010 SCT050 QNH3023INS
BECMG 0123/0124 32004KT 9999 FEW200 QNH3028INS TX04/0121Z TN00/0113Z
TAF AMD MMMY 010440Z 0105/0200 31007KT 1 1/2SM -DZ BR OVC003 TX08/0121Z TN04/0112Z
From batch tds/tafs/production/2023/2/1/h04_m59_tafs.cache.xml
Issued (about 1 hour ago)
Forecasts TAF AMD MMMY 010440Z 0105/0200 31007KT 1 1/2SM -DZ BR OVC003 TX08/0121Z TN04/0112Z
TEMPO 0106/0109 1SM BR DZ VV002
FM010900 00000KT 1SM BR DZ BKN002 OVC003
FM011700 12010KT 3SM BR BKN005 OVC010
TAF AMD LFOK 010439Z 0104/0124 24012KT 9999 SCT015 BKN030
From batch tds/tafs/production/2023/2/1/h04_m59_tafs.cache.xml
Issued (about 1 hour ago)
Forecasts TAF AMD LFOK 010439Z 0104/0124 24012KT 9999 SCT015 BKN030
TEMPO 0106/0110 BKN011
TEMPO 0120/0124 BKN004
KBHM 010438Z 0105/0124 34005KT 5SM -RA BR OVC004
From batch tds/tafs/production/2023/2/1/h04_m59_tafs.cache.xml
Issued (about 1 hour ago)
Forecasts KBHM 010438Z 0105/0124 34005KT 5SM -RA BR OVC004
FM010900 34005KT 5SM BR OVC005
FM011300 35006KT P6SM OVC008
FM011900 35006KT P6SM BKN011
TAF UMII 010437Z 0105/0115 17004G09MPS 6000 BKN015
From batch tds/tafs/production/2023/2/1/h05_m29_tafs.cache.xml
Issued (about 1 hour ago)
Forecasts TAF UMII 010437Z 0105/0115 17004G09MPS 6000 BKN015
TEMPO 0105/0110 18003G08MPS 2000 BR BKN005
BECMG 0110/0112 3000 -SN BR BKN010
TEMPO 0112/0115 18005G10MPS 1400 FZDZ SHSN BKN004 BKN012CB
TAF AMD YGLA 010434Z 0104/0112 34014KT 9999 -SHRA SCT014 BKN025
From batch tds/tafs/production/2023/2/1/h04_m59_tafs.cache.xml
Issued (about 1 hour ago)
Forecasts TAF AMD YGLA 010434Z 0104/0112 34014KT 9999 -SHRA SCT014 BKN025
FM010900 32008KT 9999 -SHRA SCT010 BKN015
TEMPO 0104/0110 VRB20G40KT 0800 +TSRA BKN005 SCT030CB
TEMPO 0109/0112 9999 -SHRA BKN005
PROB40
TEMPO 0110/0112 VRB20G40KT 1000 +TSRA BKN005 SCT030CB
TAF COR KBAD 010433Z 0104/0210 02008KT 9999 -RAPL OVC009 650092 QNH3030INS
From batch tds/tafs/production/2023/2/1/h04_m59_tafs.cache.xml
Issued (about 1 hour ago)
Forecasts TAF COR KBAD 010433Z 0104/0210 02008KT 9999 -RAPL OVC009 650092 QNH3030INS
BECMG 0119/0120 03008KT 4800 -RA BR OVC005 QNH3023INS TX02/0121Z TN00/0113Z
KDHN 010433Z 0105/0124 26004KT P6SM BKN006
From batch tds/tafs/production/2023/2/1/h04_m59_tafs.cache.xml
Issued (about 1 hour ago)
Forecasts KDHN 010433Z 0105/0124 26004KT P6SM BKN006
FM010600 28004KT 1SM BR OVC003
FM010900 32004KT 1/2SM FG OVC002
FM011300 34004KT 4SM BR OVC002
FM011700 34005KT P6SM BKN011
FM012100 33005KT P6SM BKN025
KAVL 010433Z 0105/0124 34005KT 6SM -SHRA BR SCT004 OVC010
From batch tds/tafs/production/2023/2/1/h04_m59_tafs.cache.xml
Issued (about 1 hour ago)
Forecasts KAVL 010433Z 0105/0124 34005KT 6SM -SHRA BR SCT004 OVC010
TEMPO 0105/0108 3SM -RA SCT004 OVC008
FM010900 34010KT 4SM -SHRA BR OVC007
FM011400 34010KT P6SM VCSH BKN018 OVC025
talk